sensor_id;sensor_type;location;lat;lon;timestamp;pressure;altitude;pressure_sealevel;temperature;humidity
65394;BME280;52002;49.760;6.512;2022-10-31T00:00:28;100509.23;;;10.98;75.46
65394;BME280;52002;49.760;6.512;2022-10-31T00:02:53;100505.84;;;10.96;75.33
65394;BME280;52002;49.760;6.512;2022-10-31T00:05:19;100503.56;;;10.91;75.24
65394;BME280;52002;49.760;6.512;2022-10-31T00:07:45;100499.80;;;10.88;75.31
65394;BME280;52002;49.760;6.512;2022-10-31T00:10:11;100511.09;;;10.86;75.36
65394;BME280;52002;49.760;6.512;2022-10-31T00:12:37;100513.62;;;10.87;75.42
65394;BME280;52002;49.760;6.512;2022-10-31T00:15:04;100503.45;;;10.87;75.38
65394;BME280;52002;49.760;6.512;2022-10-31T00:17:30;100497.60;;;10.87;75.33
65394;BME280;52002;49.760;6.512;2022-10-31T00:19:56;100492.39;;;10.86;75.59
65394;BME280;52002;49.760;6.512;2022-10-31T00:22:22;100493.95;;;10.88;75.64
65394;BME280;52002;49.760;6.512;2022-10-31T00:24:47;100497.73;;;10.86;75.56
65394;BME280;52002;49.760;6.512;2022-10-31T00:27:13;100494.34;;;10.84;75.49
65394;BME280;52002;49.760;6.512;2022-10-31T00:29:39;100489.00;;;10.84;75.53
65394;BME280;52002;49.760;6.512;2022-10-31T00:32:05;100484.39;;;10.86;75.74
65394;BME280;52002;49.760;6.512;2022-10-31T00:34:31;100486.81;;;10.89;75.96
65394;BME280;52002;49.760;6.512;2022-10-31T00:36:57;100483.89;;;10.92;75.93
65394;BME280;52002;49.760;6.512;2022-10-31T00:39:23;100490.93;;;10.93;76.02
65394;BME280;52002;49.760;6.512;2022-10-31T00:41:48;100485.94;;;10.88;75.71
65394;BME280;52002;49.760;6.512;2022-10-31T00:44:14;100484.14;;;10.89;76.09
65394;BME280;52002;49.760;6.512;2022-10-31T00:46:40;100482.63;;;10.96;76.05
65394;BME280;52002;49.760;6.512;2022-10-31T00:49:06;100480.08;;;11.00;76.06
65394;BME280;52002;49.760;6.512;2022-10-31T00:51:31;100477.77;;;11.01;75.80
65394;BME280;52002;49.760;6.512;2022-10-31T00:53:57;100471.81;;;11.03;75.92
65394;BME280;52002;49.760;6.512;2022-10-31T00:56:23;100481.27;;;11.07;76.00
65394;BME280;52002;49.760;6.512;2022-10-31T00:58:49;100480.38;;;11.13;76.00
65394;BME280;52002;49.760;6.512;2022-10-31T01:01:15;100477.09;;;11.15;75.74
65394;BME280;52002;49.760;6.512;2022-10-31T01:03:41;100476.12;;;11.16;75.69
65394;BME280;52002;49.760;6.512;2022-10-31T01:06:09;100472.47;;;11.17;75.52
65394;BME280;52002;49.760;6.512;2022-10-31T01:08:38;100472.11;;;11.16;75.51
65394;BME280;52002;49.760;6.512;2022-10-31T01:11:13;100476.00;;;11.17;75.63
65394;BME280;52002;49.760;6.512;2022-10-31T01:13:41;100470.16;;;11.18;75.72
65394;BME280;52002;49.760;6.512;2022-10-31T01:16:10;100478.90;;;11.20;75.81
65394;BME280;52002;49.760;6.512;2022-10-31T01:18:38;100480.59;;;11.21;75.83
65394;BME280;52002;49.760;6.512;2022-10-31T01:21:07;100476.70;;;11.19;75.69
65394;BME280;52002;49.760;6.512;2022-10-31T01:23:35;100479.62;;;11.22;75.85
65394;BME280;52002;49.760;6.512;2022-10-31T01:26:10;100479.37;;;11.25;75.77
65394;BME280;52002;49.760;6.512;2022-10-31T01:28:40;100479.44;;;11.29;75.74
65394;BME280;52002;49.760;6.512;2022-10-31T01:31:11;100466.33;;;11.32;75.77
65394;BME280;52002;49.760;6.512;2022-10-31T01:33:38;100476.88;;;11.33;75.64
65394;BME280;52002;49.760;6.512;2022-10-31T01:36:13;100470.81;;;11.31;75.50
65394;BME280;52002;49.760;6.512;2022-10-31T01:38:46;100474.86;;;11.26;75.58
65394;BME280;52002;49.760;6.512;2022-10-31T01:41:16;100471.20;;;11.27;75.68
65394;BME280;52002;49.760;6.512;2022-10-31T01:43:50;100472.69;;;11.25;75.65
65394;BME280;52002;49.760;6.512;2022-10-31T01:46:28;100464.67;;;11.25;75.65
65394;BME280;52002;49.760;6.512;2022-10-31T01:48:53;100466.98;;;11.24;75.59
65394;BME280;52002;49.760;6.512;2022-10-31T01:51:23;100462.61;;;11.23;75.73
65394;BME280;52002;49.760;6.512;2022-10-31T01:53:54;100459.94;;;11.23;75.73
65394;BME280;52002;49.760;6.512;2022-10-31T01:56:23;100464.92;;;11.22;75.81
65394;BME280;52002;49.760;6.512;2022-10-31T01:58:49;100464.92;;;11.22;75.90
65394;BME280;52002;49.760;6.512;2022-10-31T02:01:16;100460.41;;;11.22;76.01
65394;BME280;52002;49.760;6.512;2022-10-31T02:03:44;100462.25;;;11.22;75.98
65394;BME280;52002;49.760;6.512;2022-10-31T02:06:26;100456.18;;;11.20;75.76
65394;BME280;52002;49.760;6.512;2022-10-31T02:08:48;100459.47;;;11.18;75.81
65394;BME280;52002;49.760;6.512;2022-10-31T02:11:16;100461.78;;;11.17;75.90
65394;BME280;52002;49.760;6.512;2022-10-31T02:13:42;100461.78;;;11.17;75.96
65394;BME280;52002;49.760;6.512;2022-10-31T02:16:09;100457.41;;;11.16;75.95
65394;BME280;52002;49.760;6.512;2022-10-31T02:18:35;100449.03;;;11.15;76.06
65394;BME280;52002;49.760;6.512;2022-10-31T02:21:18;100448.56;;;11.15;76.10
65394;BME280;52002;49.760;6.512;2022-10-31T02:24:00;100444.41;;;11.17;76.14
65394;BME280;52002;49.760;6.512;2022-10-31T02:26:41;100449.50;;;11.20;76.20
65394;BME280;52002;49.760;6.512;2022-10-31T02:31:59;100441.70;;;11.22;76.28
65394;BME280;52002;49.760;6.512;2022-10-31T02:34:44;100444.73;;;11.23;76.39
65394;BME280;52002;49.760;6.512;2022-10-31T02:42:39;100434.04;;;11.23;76.41
65394;BME280;52002;49.760;6.512;2022-10-31T02:47:48;100431.16;;;11.21;76.47
65394;BME280;52002;49.760;6.512;2022-10-31T02:50:20;100431.88;;;11.23;76.61
65394;BME280;52002;49.760;6.512;2022-10-31T02:52:50;100429.56;;;11.24;76.65
65394;BME280;52002;49.760;6.512;2022-10-31T02:58:09;100428.84;;;11.22;76.54
65394;BME280;52002;49.760;6.512;2022-10-31T03:03:27;100426.42;;;11.19;76.59
65394;BME280;52002;49.760;6.512;2022-10-31T03:06:30;100416.85;;;11.16;76.51
65394;BME280;52002;49.760;6.512;2022-10-31T03:12:08;100427.47;;;11.06;76.70
65394;BME280;52002;49.760;6.512;2022-10-31T03:15:00;100420.69;;;11.02;76.96
65394;BME280;52002;49.760;6.512;2022-10-31T03:17:31;100419.34;;;11.02;77.07
65394;BME280;52002;49.760;6.512;2022-10-31T03:20:04;100415.95;;;11.00;77.01
65394;BME280;52002;49.760;6.512;2022-10-31T03:22:33;100412.92;;;10.99;77.11
65394;BME280;52002;49.760;6.512;2022-10-31T03:25:02;100409.27;;;11.00;77.18
65394;BME280;52002;49.760;6.512;2022-10-31T03:27:32;100403.94;;;11.00;77.26
65394;BME280;52002;49.760;6.512;2022-10-31T03:30:03;100403.57;;;10.99;77.13
65394;BME280;52002;49.760;6.512;2022-10-31T03:32:42;100403.83;;;10.96;77.11
65394;BME280;52002;49.760;6.512;2022-10-31T03:35:04;100409.31;;;10.95;77.13
65394;BME280;52002;49.760;6.512;2022-10-31T03:37:34;100410.78;;;10.93;77.26
65394;BME280;52002;49.760;6.512;2022-10-31T03:40:06;100407.75;;;10.92;77.30
65394;BME280;52002;49.760;6.512;2022-10-31T03:42:37;100399.99;;;10.89;77.39
65394;BME280;52002;49.760;6.512;2022-10-31T03:45:17;100403.13;;;10.88;77.49
65394;BME280;52002;49.760;6.512;2022-10-31T03:47:45;100402.05;;;10.91;77.34
65394;BME280;52002;49.760;6.512;2022-10-31T03:50:13;100407.64;;;10.88;77.33
65394;BME280;52002;49.760;6.512;2022-10-31T03:52:49;100407.89;;;10.85;77.34
65394;BME280;52002;49.760;6.512;2022-10-31T03:55:19;100402.08;;;10.80;77.40
65394;BME280;52002;49.760;6.512;2022-10-31T04:00:40;100402.11;;;10.74;77.72
65394;BME280;52002;49.760;6.512;2022-10-31T04:03:10;100402.47;;;10.75;77.75
65394;BME280;52002;49.760;6.512;2022-10-31T04:05:39;100399.33;;;10.75;77.76
65394;BME280;52002;49.760;6.512;2022-10-31T04:08:09;100406.12;;;10.74;77.67
65394;BME280;52002;49.760;6.512;2022-10-31T04:10:38;100402.11;;;10.74;77.78
65394;BME280;52002;49.760;6.512;2022-10-31T04:13:09;100398.00;;;10.75;77.81
65394;BME280;52002;49.760;6.512;2022-10-31T04:15:38;100398.47;;;10.75;77.79
65394;BME280;52002;49.760;6.512;2022-10-31T04:18:05;100405.00;;;10.76;77.84
65394;BME280;52002;49.760;6.512;2022-10-31T04:20:38;100412.77;;;10.80;77.77
65394;BME280;52002;49.760;6.512;2022-10-31T04:23:03;100407.42;;;10.80;77.70
65394;BME280;52002;49.760;6.512;2022-10-31T04:25:30;100408.15;;;10.82;77.77
65394;BME280;52002;49.760;6.512;2022-10-31T04:27:56;100405.23;;;10.85;77.75
65394;BME280;52002;49.760;6.512;2022-10-31T04:30:22;100403.06;;;10.78;77.28
65394;BME280;52002;49.760;6.512;2022-10-31T04:32:48;100406.34;;;10.76;77.27
65394;BME280;52002;49.760;6.512;2022-10-31T04:35:14;100406.45;;;10.81;77.45
65394;BME280;52002;49.760;6.512;2022-10-31T04:37:40;100404.50;;;10.83;77.32
65394;BME280;52002;49.760;6.512;2022-10-31T04:40:07;100399.88;;;10.85;77.27
65394;BME280;52002;49.760;6.512;2022-10-31T04:42:33;100406.05;;;10.85;77.20
65394;BME280;52002;49.760;6.512;2022-10-31T04:44:59;100407.06;;;10.84;77.13
65394;BME280;52002;49.760;6.512;2022-10-31T04:47:25;100406.81;;;10.82;76.98
65394;BME280;52002;49.760;6.512;2022-10-31T04:49:51;100398.69;;;10.77;77.01
65394;BME280;52002;49.760;6.512;2022-10-31T04:52:17;100397.35;;;10.77;76.95
65394;BME280;52002;49.760;6.512;2022-10-31T04:54:42;100393.34;;;10.77;77.11
65394;BME280;52002;49.760;6.512;2022-10-31T04:57:08;100395.19;;;10.77;76.95
65394;BME280;52002;49.760;6.512;2022-10-31T04:59:34;100396.37;;;10.78;77.17
65394;BME280;52002;49.760;6.512;2022-10-31T05:02:00;100396.02;;;10.83;77.32
65394;BME280;52002;49.760;6.512;2022-10-31T05:04:26;100395.73;;;10.86;77.29
65394;BME280;52002;49.760;6.512;2022-10-31T05:06:52;100397.32;;;10.89;77.04
65394;BME280;52002;49.760;6.512;2022-10-31T05:09:18;100397.21;;;10.85;76.83
65394;BME280;52002;49.760;6.512;2022-10-31T05:11:44;100400.97;;;10.88;76.64
65394;BME280;52002;49.760;6.512;2022-10-31T05:14:10;100390.89;;;10.86;76.61
65394;BME280;52002;49.760;6.512;2022-10-31T05:16:36;100390.64;;;10.89;76.67
65394;BME280;52002;49.760;6.512;2022-10-31T05:19:02;100387.61;;;10.88;76.71
65394;BME280;52002;49.760;6.512;2022-10-31T05:21:28;100386.53;;;10.85;76.51
65394;BME280;52002;49.760;6.512;2022-10-31T05:23:54;100374.41;;;10.81;76.70
65394;BME280;52002;49.760;6.512;2022-10-31T05:26:20;100363.36;;;10.80;76.79
65394;BME280;52002;49.760;6.512;2022-10-31T05:28:45;100362.88;;;10.80;76.99
65394;BME280;52002;49.760;6.512;2022-10-31T05:31:11;100368.55;;;10.87;77.10
65394;BME280;52002;49.760;6.512;2022-10-31T05:33:37;100357.61;;;10.90;77.20
65394;BME280;52002;49.760;6.512;2022-10-31T05:36:04;100361.70;;;10.94;77.14
65394;BME280;52002;49.760;6.512;2022-10-31T05:38:30;100358.19;;;10.93;77.02
65394;BME280;52002;49.760;6.512;2022-10-31T05:40:56;100354.94;;;10.90;76.94
65394;BME280;52002;49.760;6.512;2022-10-31T05:43:28;100351.05;;;10.88;76.88
65394;BME280;52002;49.760;6.512;2022-10-31T05:45:55;100354.84;;;10.86;76.83
65394;BME280;52002;49.760;6.512;2022-10-31T05:48:22;100357.77;;;10.83;77.01
65394;BME280;52002;49.760;6.512;2022-10-31T05:50:48;100355.45;;;10.84;77.15
65394;BME280;52002;49.760;6.512;2022-10-31T05:53:15;100356.06;;;10.82;77.00
65394;BME280;52002;49.760;6.512;2022-10-31T05:55:42;100360.69;;;10.80;77.00
65394;BME280;52002;49.760;6.512;2022-10-31T05:58:09;100356.94;;;10.76;77.12
65394;BME280;52002;49.760;6.512;2022-10-31T06:00:36;100360.72;;;10.74;76.99
65394;BME280;52002;49.760;6.512;2022-10-31T06:03:04;100354.80;;;10.70;76.93
65394;BME280;52002;49.760;6.512;2022-10-31T06:05:32;100354.69;;;10.66;76.78
65394;BME280;52002;49.760;6.512;2022-10-31T06:07:59;100357.14;;;10.63;76.77
65394;BME280;52002;49.760;6.512;2022-10-31T06:10:25;100356.09;;;10.55;76.73
65394;BME280;52002;49.760;6.512;2022-10-31T06:12:52;100357.67;;;10.52;77.00
65394;BME280;52002;49.760;6.512;2022-10-31T06:15:18;100359.75;;;10.48;77.18
65394;BME280;52002;49.760;6.512;2022-10-31T06:17:44;100355.61;;;10.50;77.41
65394;BME280;52002;49.760;6.512;2022-10-31T06:20:10;100344.80;;;10.51;77.34
65394;BME280;52002;49.760;6.512;2022-10-31T06:22:37;100341.04;;;10.54;77.13
65394;BME280;52002;49.760;6.512;2022-10-31T06:25:03;100344.07;;;10.55;77.02
65394;BME280;52002;49.760;6.512;2022-10-31T06:27:29;100336.42;;;10.56;76.97
65394;BME280;52002;49.760;6.512;2022-10-31T06:29:55;100350.14;;;10.57;77.00
65394;BME280;52002;49.760;6.512;2022-10-31T06:32:21;100349.99;;;10.58;77.01
65394;BME280;52002;49.760;6.512;2022-10-31T06:34:47;100351.69;;;10.59;77.17
65394;BME280;52002;49.760;6.512;2022-10-31T06:37:15;100356.17;;;10.65;77.21
65394;BME280;52002;49.760;6.512;2022-10-31T06:39:42;100356.89;;;10.67;77.05
65394;BME280;52002;49.760;6.512;2022-10-31T06:42:08;100354.80;;;10.70;77.09
65394;BME280;52002;49.760;6.512;2022-10-31T06:44:34;100362.41;;;10.75;77.06
65394;BME280;52002;49.760;6.512;2022-10-31T06:46:59;100360.83;;;10.78;77.11
65394;BME280;52002;49.760;6.512;2022-10-31T06:49:25;100361.91;;;10.81;77.08
65394;BME280;52002;49.760;6.512;2022-10-31T06:51:51;100362.99;;;10.84;77.12
65394;BME280;52002;49.760;6.512;2022-10-31T06:54:17;100366.24;;;10.88;77.12
65394;BME280;52002;49.760;6.512;2022-10-31T06:56:45;100368.05;;;10.93;77.10
65394;BME280;52002;49.760;6.512;2022-10-31T06:59:14;100365.80;;;10.98;76.97
65394;BME280;52002;49.760;6.512;2022-10-31T07:01:40;100363.23;;;11.02;76.89
65394;BME280;52002;49.760;6.512;2022-10-31T07:04:09;100370.02;;;11.06;77.02
65394;BME280;52002;49.760;6.512;2022-10-31T07:06:35;100365.47;;;11.13;76.99
65394;BME280;52002;49.760;6.512;2022-10-31T07:09:01;100365.10;;;11.17;76.86
65394;BME280;52002;49.760;6.512;2022-10-31T07:11:27;100369.18;;;11.21;76.71
65394;BME280;52002;49.760;6.512;2022-10-31T07:13:53;100372.45;;;11.25;76.57
65394;BME280;52002;49.760;6.512;2022-10-31T07:16:19;100372.05;;;11.30;76.53
65394;BME280;52002;49.760;6.512;2022-10-31T07:18:45;100370.81;;;11.34;76.44
65394;BME280;52002;49.760;6.512;2022-10-31T07:21:11;100372.72;;;11.37;76.36
65394;BME280;52002;49.760;6.512;2022-10-31T07:23:36;100368.20;;;11.38;76.25
65394;BME280;52002;49.760;6.512;2022-10-31T07:26:03;100379.27;;;11.39;76.25
65394;BME280;52002;49.760;6.512;2022-10-31T07:28:29;100380.84;;;11.42;76.33
65394;BME280;52002;49.760;6.512;2022-10-31T07:30:57;100380.80;;;11.47;76.23
65394;BME280;52002;49.760;6.512;2022-10-31T07:33:24;100382.09;;;11.53;76.19
65394;BME280;52002;49.760;6.512;2022-10-31T07:35:53;100387.89;;;11.58;76.17
65394;BME280;52002;49.760;6.512;2022-10-31T07:38:19;100390.36;;;11.65;76.24
65394;BME280;52002;49.760;6.512;2022-10-31T07:40:51;100385.31;;;11.72;76.21
65394;BME280;52002;49.760;6.512;2022-10-31T07:43:20;100385.63;;;11.79;76.13
65394;BME280;52002;49.760;6.512;2022-10-31T07:45:53;100385.80;;;11.87;76.02
65394;BME280;52002;49.760;6.512;2022-10-31T07:48:20;100378.94;;;11.94;75.89
65394;BME280;52002;49.760;6.512;2022-10-31T07:50:46;100379.98;;;12.03;75.75
65394;BME280;52002;49.760;6.512;2022-10-31T07:53:13;100385.75;;;12.08;75.50
65394;BME280;52002;49.760;6.512;2022-10-31T07:55:40;100383.72;;;12.16;75.48
65394;BME280;52002;49.760;6.512;2022-10-31T07:58:08;100385.50;;;12.21;75.34
65394;BME280;52002;49.760;6.512;2022-10-31T08:00:37;100383.63;;;12.27;75.20
65394;BME280;52002;49.760;6.512;2022-10-31T08:03:07;100374.66;;;12.33;75.24
65394;BME280;52002;49.760;6.512;2022-10-31T08:05:35;100366.70;;;12.37;75.04
65394;BME280;52002;49.760;6.512;2022-10-31T08:08:02;100376.80;;;12.39;74.93
65394;BME280;52002;49.760;6.512;2022-10-31T08:10:30;100376.37;;;12.43;74.78
65394;BME280;52002;49.760;6.512;2022-10-31T08:13:02;100377.44;;;12.47;74.83
65394;BME280;52002;49.760;6.512;2022-10-31T08:15:30;100363.89;;;12.48;74.71
65394;BME280;52002;49.760;6.512;2022-10-31T08:17:56;100360.58;;;12.50;74.63
65394;BME280;52002;49.760;6.512;2022-10-31T08:20:23;100357.91;;;12.50;74.57
65394;BME280;52002;49.760;6.512;2022-10-31T08:22:57;100354.59;;;12.52;74.57
65394;BME280;52002;49.760;6.512;2022-10-31T08:25:23;100354.52;;;12.58;74.56
65394;BME280;52002;49.760;6.512;2022-10-31T08:27:54;100352.83;;;12.67;74.57
65394;BME280;52002;49.760;6.512;2022-10-31T08:30:22;100352.11;;;12.74;74.49
65394;BME280;52002;49.760;6.512;2022-10-31T08:35:40;100347.80;;;12.87;74.40
65394;BME280;52002;49.760;6.512;2022-10-31T08:38:09;100341.53;;;12.93;74.32
65394;BME280;52002;49.760;6.512;2022-10-31T08:40:36;100344.48;;;12.99;74.29
65394;BME280;52002;49.760;6.512;2022-10-31T08:43:04;100339.38;;;13.06;74.11
65394;BME280;52002;49.760;6.512;2022-10-31T08:45:32;100339.16;;;13.13;74.02
65394;BME280;52002;49.760;6.512;2022-10-31T08:48:00;100332.56;;;13.21;74.00
65394;BME280;52002;49.760;6.512;2022-10-31T08:50:29;100334.32;;;13.27;73.96
65394;BME280;52002;49.760;6.512;2022-10-31T08:53:03;100331.55;;;13.32;73.88
65394;BME280;52002;49.760;6.512;2022-10-31T08:55:33;100334.12;;;13.38;73.82
65394;BME280;52002;49.760;6.512;2022-10-31T08:58:00;100322.86;;;13.44;73.68
65394;BME280;52002;49.760;6.512;2022-10-31T09:00:26;100315.89;;;13.51;73.66
65394;BME280;52002;49.760;6.512;2022-10-31T09:02:56;100311.69;;;13.63;73.52
65394;BME280;52002;49.760;6.512;2022-10-31T09:05:24;100313.98;;;13.72;73.38
65394;BME280;52002;49.760;6.512;2022-10-31T09:07:50;100311.23;;;13.81;73.32
65394;BME280;52002;49.760;6.512;2022-10-31T09:10:16;100311.31;;;13.90;73.12
65394;BME280;52002;49.760;6.512;2022-10-31T09:12:43;100307.06;;;14.01;73.06
65394;BME280;52002;49.760;6.512;2022-10-31T09:15:09;100313.05;;;14.09;72.91
65394;BME280;52002;49.760;6.512;2022-10-31T09:17:35;100307.91;;;14.16;72.82
65394;BME280;52002;49.760;6.512;2022-10-31T09:20:00;100302.07;;;14.20;72.47
65394;BME280;52002;49.760;6.512;2022-10-31T09:22:26;100301.44;;;14.26;72.45
65394;BME280;52002;49.760;6.512;2022-10-31T09:24:52;100307.24;;;14.36;72.35
65394;BME280;52002;49.760;6.512;2022-10-31T09:27:18;100295.38;;;14.42;72.30
65394;BME280;52002;49.760;6.512;2022-10-31T09:29:44;100300.84;;;14.51;72.24
65394;BME280;52002;49.760;6.512;2022-10-31T09:32:10;100294.17;;;14.59;72.18
65394;BME280;52002;49.760;6.512;2022-10-31T09:34:36;100290.88;;;14.65;72.03
65394;BME280;52002;49.760;6.512;2022-10-31T09:37:01;100293.94;;;14.70;71.93
65394;BME280;52002;49.760;6.512;2022-10-31T09:39:27;100287.95;;;14.77;71.81
65394;BME280;52002;49.760;6.512;2022-10-31T09:47:48;100280.99;;;14.92;71.53
65394;BME280;52002;49.760;6.512;2022-10-31T09:50:15;100281.03;;;14.96;71.45
65394;BME280;52002;49.760;6.512;2022-10-31T09:52:56;100279.20;;;15.01;71.52
65394;BME280;52002;49.760;6.512;2022-10-31T09:55:39;100281.75;;;15.07;71.58
65394;BME280;52002;49.760;6.512;2022-10-31T09:58:09;100278.09;;;15.12;71.51
65394;BME280;52002;49.760;6.512;2022-10-31T10:00:37;100273.09;;;15.17;71.38
65394;BME280;52002;49.760;6.512;2022-10-31T10:05:59;100272.16;;;15.35;71.23
65394;BME280;52002;49.760;6.512;2022-10-31T10:08:31;100272.86;;;15.45;71.10
65394;BME280;52002;49.760;6.512;2022-10-31T10:23:32;100270.45;;;15.76;70.41
65394;BME280;52002;49.760;6.512;2022-10-31T10:26:18;100269.27;;;15.79;70.38
65394;BME280;52002;49.760;6.512;2022-10-31T10:29:08;100271.13;;;15.83;70.20
65394;BME280;52002;49.760;6.512;2022-10-31T10:31:39;100265.64;;;15.88;70.19
65394;BME280;52002;49.760;6.512;2022-10-31T10:34:27;100272.03;;;15.96;70.09
65394;BME280;52002;49.760;6.512;2022-10-31T10:37:04;100271.04;;;16.01;70.11
65394;BME280;52002;49.760;6.512;2022-10-31T10:39:43;100256.55;;;16.06;69.92
65394;BME280;52002;49.760;6.512;2022-10-31T10:42:15;100255.55;;;16.11;69.80
65394;BME280;52002;49.760;6.512;2022-10-31T10:44:59;100249.50;;;16.13;69.75
65394;BME280;52002;49.760;6.512;2022-10-31T10:47:48;100243.77;;;16.12;69.64
65394;BME280;52002;49.760;6.512;2022-10-31T10:50:25;100245.64;;;16.12;69.67
65394;BME280;52002;49.760;6.512;2022-10-31T10:55:48;100247.67;;;16.14;69.75
65394;BME280;52002;49.760;6.512;2022-10-31T10:58:14;100247.66;;;16.22;69.77
65394;BME280;52002;49.760;6.512;2022-10-31T11:00:42;100244.79;;;16.28;69.55
65394;BME280;52002;49.760;6.512;2022-10-31T11:03:11;100233.35;;;16.34;69.47
65394;BME280;52002;49.760;6.512;2022-10-31T11:08:32;100223.57;;;16.49;69.26
65394;BME280;52002;49.760;6.512;2022-10-31T11:11:24;100220.88;;;16.53;69.01
65394;BME280;52002;49.760;6.512;2022-10-31T11:13:56;100219.34;;;16.59;68.94
65394;BME280;52002;49.760;6.512;2022-10-31T11:21:50;100201.27;;;16.84;68.67
65394;BME280;52002;49.760;6.512;2022-10-31T11:24:19;100197.88;;;16.95;68.58
65394;BME280;52002;49.760;6.512;2022-10-31T11:26:49;100188.09;;;17.02;68.51
65394;BME280;52002;49.760;6.512;2022-10-31T11:29:22;100186.21;;;17.07;68.33
65394;BME280;52002;49.760;6.512;2022-10-31T11:31:52;100182.49;;;17.12;68.26
65394;BME280;52002;49.760;6.512;2022-10-31T11:34:41;100180.42;;;17.18;68.11
65394;BME280;52002;49.760;6.512;2022-10-31T11:39:54;100172.80;;;17.26;67.70
65394;BME280;52002;49.760;6.512;2022-10-31T11:42:25;100173.13;;;17.27;67.77
65394;BME280;52002;49.760;6.512;2022-10-31T11:44:52;100172.45;;;17.29;67.67
65394;BME280;52002;49.760;6.512;2022-10-31T11:47:28;100169.25;;;17.29;67.63
65394;BME280;52002;49.760;6.512;2022-10-31T11:49:57;100153.91;;;17.26;67.70
65394;BME280;52002;49.760;6.512;2022-10-31T11:52:29;100154.44;;;17.25;67.87
65394;BME280;52002;49.760;6.512;2022-10-31T11:55:00;100143.84;;;17.20;67.69
65394;BME280;52002;49.760;6.512;2022-10-31T11:57:31;100141.83;;;17.18;67.75
65394;BME280;52002;49.760;6.512;2022-10-31T12:00:03;100140.00;;;17.14;67.79
65394;BME280;52002;49.760;6.512;2022-10-31T12:02:30;100135.09;;;17.13;67.95
65394;BME280;52002;49.760;6.512;2022-10-31T12:05:06;100123.95;;;17.17;68.11
65394;BME280;52002;49.760;6.512;2022-10-31T12:07:33;100127.13;;;17.20;68.15
65394;BME280;52002;49.760;6.512;2022-10-31T12:09:59;100130.15;;;17.25;68.18
65394;BME280;52002;49.760;6.512;2022-10-31T12:12:41;100119.15;;;17.31;68.13
65394;BME280;52002;49.760;6.512;2022-10-31T12:15:32;100120.12;;;17.38;68.04
65394;BME280;52002;49.760;6.512;2022-10-31T12:18:10;100114.33;;;17.45;67.95
65394;BME280;52002;49.760;6.512;2022-10-31T12:21:21;100109.24;;;17.51;67.86
65394;BME280;52002;49.760;6.512;2022-10-31T12:24:06;100107.19;;;17.57;67.69
65394;BME280;52002;49.760;6.512;2022-10-31T12:27:24;100110.49;;;17.63;67.56
65394;BME280;52002;49.760;6.512;2022-10-31T12:29:31;100101.70;;;17.65;67.28
65394;BME280;52002;49.760;6.512;2022-10-31T12:37:53;100075.92;;;17.82;67.30
65394;BME280;52002;49.760;6.512;2022-10-31T12:40:47;100066.14;;;17.81;67.13
65394;BME280;52002;49.760;6.512;2022-10-31T12:43:25;100055.70;;;17.78;67.12
65394;BME280;52002;49.760;6.512;2022-10-31T12:45:59;100055.70;;;17.78;67.07
65394;BME280;52002;49.760;6.512;2022-10-31T12:54:13;100039.77;;;17.87;66.99
65394;BME280;52002;49.760;6.512;2022-10-31T12:57:01;100045.82;;;17.89;66.97
65394;BME280;52002;49.760;6.512;2022-10-31T12:59:40;100036.17;;;17.90;67.00
65394;BME280;52002;49.760;6.512;2022-10-31T13:02:30;100023.13;;;17.94;67.02
65394;BME280;52002;49.760;6.512;2022-10-31T13:04:58;100023.45;;;17.99;67.01
65394;BME280;52002;49.760;6.512;2022-10-31T13:07:52;100014.98;;;18.02;67.06
65394;BME280;52002;49.760;6.512;2022-10-31T13:13:00;99998.38;;;18.10;67.13
65394;BME280;52002;49.760;6.512;2022-10-31T13:15:31;99999.20;;;18.25;67.17
65394;BME280;52002;49.760;6.512;2022-10-31T13:18:05;99998.44;;;18.46;66.99
65394;BME280;52002;49.760;6.512;2022-10-31T13:20:40;99989.86;;;18.69;66.63
65394;BME280;52002;49.760;6.512;2022-10-31T13:23:19;99989.95;;;18.86;66.26
65394;BME280;52002;49.760;6.512;2022-10-31T13:25:45;99982.47;;;19.03;65.88
65394;BME280;52002;49.760;6.512;2022-10-31T13:31:06;99966.03;;;19.16;65.39
65394;BME280;52002;49.760;6.512;2022-10-31T13:33:38;99965.59;;;19.12;65.23
65394;BME280;52002;49.760;6.512;2022-10-31T13:36:21;99953.03;;;19.04;65.26
65394;BME280;52002;49.760;6.512;2022-10-31T13:46:52;99955.16;;;18.35;66.44
65394;BME280;52002;49.760;6.512;2022-10-31T13:54:45;99932.42;;;18.66;66.65
65394;BME280;52002;49.760;6.512;2022-10-31T13:57:35;99931.35;;;18.83;66.18
65394;BME280;52002;49.760;6.512;2022-10-31T14:02:57;99936.59;;;19.06;66.19
65394;BME280;52002;49.760;6.512;2022-10-31T14:05:34;99928.20;;;19.22;65.89
65394;BME280;52002;49.760;6.512;2022-10-31T14:08:02;99927.20;;;19.41;65.70
65394;BME280;52002;49.760;6.512;2022-10-31T14:10:38;99926.97;;;19.53;65.50
65394;BME280;52002;49.760;6.512;2022-10-31T14:13:16;99912.72;;;19.55;65.38
65394;BME280;52002;49.760;6.512;2022-10-31T14:16:03;99913.12;;;19.70;65.13
65394;BME280;52002;49.760;6.512;2022-10-31T14:18:33;99912.80;;;19.86;65.01
65394;BME280;52002;49.760;6.512;2022-10-31T14:21:00;99904.66;;;20.22;64.49
65394;BME280;52002;49.760;6.512;2022-10-31T14:23:38;99902.16;;;20.58;63.86
65394;BME280;52002;49.760;6.512;2022-10-31T14:29:00;99897.12;;;21.40;61.82
65394;BME280;52002;49.760;6.512;2022-10-31T14:34:41;99871.03;;;22.88;59.81
65394;BME280;52002;49.760;6.512;2022-10-31T14:49:25;99884.42;;;25.78;51.56
65394;BME280;52002;49.760;6.512;2022-10-31T14:51:57;99877.08;;;26.19;51.04
65394;BME280;52002;49.760;6.512;2022-10-31T14:54:34;99875.50;;;26.53;50.28
65394;BME280;52002;49.760;6.512;2022-10-31T14:57:04;99878.28;;;26.70;49.72